createdAt,value
2022-12-06T00:01:32.629Z,95.05
2022-12-06T00:03:49.729Z,95.39
2022-12-06T00:06:06.719Z,95.23
2022-12-06T00:08:23.766Z,95.37
2022-12-06T00:10:40.995Z,94.96
2022-12-06T00:12:57.937Z,95.25
2022-12-06T00:15:15.110Z,94.97
2022-12-06T00:17:32.239Z,94.97
2022-12-06T00:19:49.247Z,96.25
2022-12-06T00:22:06.206Z,96.13
2022-12-06T00:24:24.426Z,96.31
2022-12-06T00:26:41.674Z,95.09
2022-12-06T00:28:59.042Z,96.16
2022-12-06T00:31:16.263Z,95.25
2022-12-06T00:33:33.370Z,95.36
2022-12-06T00:35:50.438Z,95.72
2022-12-06T00:38:07.381Z,96.46
2022-12-06T00:40:24.438Z,95.97
2022-12-06T00:42:41.719Z,95.96
2022-12-06T00:44:59.007Z,95.93
2022-12-06T00:47:15.954Z,95.36
2022-12-06T00:49:33.090Z,96.18
2022-12-06T00:51:50.090Z,95.68
2022-12-06T00:54:07.391Z,94.90
2022-12-06T00:56:24.763Z,94.74
2022-12-06T00:58:41.749Z,94.52
2022-12-06T01:00:59.784Z,94.77
2022-12-06T01:03:16.829Z,94.91
2022-12-06T01:05:34.124Z,94.86
2022-12-06T01:07:52.576Z,95.51
2022-12-06T01:10:09.629Z,94.59
2022-12-06T01:12:26.687Z,95.71
2022-12-06T01:14:44.033Z,96.05
2022-12-06T01:17:04.136Z,95.55
2022-12-06T01:19:21.132Z,96.19
2022-12-06T01:21:38.185Z,96.09
2022-12-06T01:23:55.403Z,95.33
2022-12-06T01:26:12.434Z,95.21
2022-12-06T01:28:29.655Z,95.15
2022-12-06T01:30:46.708Z,95.08
2022-12-06T01:33:03.911Z,95.88
2022-12-06T01:35:20.917Z,94.75
2022-12-06T01:37:37.893Z,95.55
2022-12-06T01:39:54.846Z,94.71
2022-12-06T01:42:11.968Z,94.56
2022-12-06T01:44:28.969Z,94.55
2022-12-06T01:46:46.063Z,95.01
2022-12-06T01:49:03.995Z,94.60
2022-12-06T01:51:20.936Z,94.94
2022-12-06T01:53:38.248Z,94.08
2022-12-06T01:55:55.177Z,94.74
2022-12-06T01:58:12.446Z,94.37
2022-12-06T02:00:29.781Z,93.70
2022-12-06T02:02:47.165Z,93.30
2022-12-06T02:05:04.547Z,93.46
2022-12-06T02:07:21.617Z,93.31
2022-12-06T02:09:38.616Z,93.73
2022-12-06T02:11:55.941Z,93.29
2022-12-06T02:14:12.936Z,92.74
2022-12-06T02:16:29.916Z,92.79
2022-12-06T02:18:47.033Z,92.72
2022-12-06T02:21:04.115Z,93.44
2022-12-06T02:23:21.108Z,93.19
2022-12-06T02:25:42.070Z,92.73
2022-12-06T02:28:00.311Z,92.23
2022-12-06T02:30:17.221Z,93.27
2022-12-06T02:32:34.272Z,91.96
2022-12-06T02:34:51.490Z,92.89
2022-12-06T02:37:08.369Z,92.05
2022-12-06T02:39:25.718Z,92.44
2022-12-06T02:41:42.999Z,91.72
2022-12-06T02:44:00.284Z,91.90
2022-12-06T02:46:17.616Z,92.42
2022-12-06T02:48:34.707Z,91.40
2022-12-06T02:50:51.982Z,91.73
2022-12-06T02:53:08.902Z,92.13
2022-12-06T02:55:25.842Z,92.08
2022-12-06T02:57:42.751Z,92.55
2022-12-06T02:59:59.868Z,92.45
2022-12-06T03:02:17.163Z,92.68
2022-12-06T03:04:34.459Z,92.63
2022-12-06T03:06:51.411Z,93.13
2022-12-06T03:09:08.233Z,92.21
2022-12-06T03:11:25.491Z,91.94
2022-12-06T03:13:42.543Z,92.93
2022-12-06T03:15:59.688Z,92.22
2022-12-06T03:18:17.087Z,93.59
2022-12-06T03:20:34.372Z,93.06
2022-12-06T03:22:51.617Z,92.68
2022-12-06T03:25:08.694Z,93.06
2022-12-06T03:27:25.763Z,94.10
2022-12-06T03:29:42.761Z,93.89
2022-12-06T03:31:59.804Z,93.83
2022-12-06T03:34:16.908Z,92.72
2022-12-06T03:36:33.971Z,92.88
2022-12-06T03:38:51.050Z,93.09
2022-12-06T03:41:08.354Z,92.77
2022-12-06T03:43:25.295Z,94.02
2022-12-06T03:45:42.646Z,93.04
2022-12-06T03:47:59.761Z,93.35
2022-12-06T03:50:16.821Z,92.09
2022-12-06T03:52:34.112Z,92.89
2022-12-06T03:54:52.347Z,92.48
2022-12-06T03:57:09.325Z,92.43
2022-12-06T03:59:26.560Z,92.36
2022-12-06T04:01:43.538Z,92.41
2022-12-06T04:04:00.526Z,92.32
2022-12-06T04:06:17.528Z,93.23
2022-12-06T04:08:34.714Z,91.80
2022-12-06T04:10:51.973Z,91.99
2022-12-06T04:13:08.976Z,92.17
2022-12-06T04:15:26.236Z,91.95
2022-12-06T04:17:43.560Z,91.84
2022-12-06T04:20:00.935Z,91.83
2022-12-06T04:22:18.312Z,92.69
2022-12-06T04:24:35.346Z,92.34
2022-12-06T04:26:52.342Z,92.45
2022-12-06T04:29:09.281Z,92.67
2022-12-06T04:31:26.234Z,92.04
2022-12-06T04:33:43.663Z,92.58
2022-12-06T04:36:00.542Z,92.15
2022-12-06T04:38:17.851Z,92.69
2022-12-06T04:40:35.121Z,92.26
2022-12-06T04:42:52.159Z,93.10
2022-12-06T04:45:09.341Z,92.04
2022-12-06T04:47:26.581Z,92.50
2022-12-06T04:49:44.646Z,92.58
2022-12-06T04:52:01.667Z,92.11
2022-12-06T04:54:18.920Z,92.08
2022-12-06T04:56:35.943Z,92.47
2022-12-06T04:58:53.946Z,92.37
2022-12-06T05:01:12.047Z,92.82
2022-12-06T05:03:29.131Z,92.67
2022-12-06T05:05:46.433Z,92.81
2022-12-06T05:08:04.392Z,93.03
2022-12-06T05:10:21.725Z,93.18
2022-12-06T05:12:38.970Z,92.81
2022-12-06T05:14:56.225Z,92.14
2022-12-06T05:17:13.086Z,93.23
2022-12-06T05:19:30.082Z,93.25
2022-12-06T05:21:47.362Z,93.32
2022-12-06T05:24:04.664Z,93.27
2022-12-06T05:26:21.676Z,92.76
2022-12-06T05:28:38.625Z,93.85
2022-12-06T05:30:55.863Z,93.52
2022-12-06T05:33:12.995Z,93.26
2022-12-06T05:35:29.859Z,93.93
2022-12-06T05:37:47.824Z,93.92
2022-12-06T05:40:04.990Z,92.60
2022-12-06T05:42:22.750Z,93.93
2022-12-06T05:44:39.796Z,93.46
2022-12-06T05:46:56.817Z,93.69
2022-12-06T05:49:14.800Z,92.15
2022-12-06T05:51:33.973Z,93.21
2022-12-06T05:53:50.972Z,92.97
2022-12-06T05:56:08.047Z,92.26
2022-12-06T05:58:25.020Z,93.48
2022-12-06T06:00:42.271Z,93.66
2022-12-06T06:03:00.358Z,92.91
2022-12-06T06:05:18.395Z,93.22
2022-12-06T06:07:36.399Z,93.81
2022-12-06T06:09:53.768Z,94.04
2022-12-06T06:12:12.626Z,92.92
2022-12-06T06:14:29.981Z,93.46
2022-12-06T06:16:47.011Z,93.58
2022-12-06T06:19:04.329Z,93.34
2022-12-06T06:21:21.366Z,92.46
2022-12-06T06:23:39.102Z,93.49
2022-12-06T06:25:56.152Z,91.99
2022-12-06T06:28:13.455Z,92.65
2022-12-06T06:30:32.446Z,93.62
2022-12-06T06:32:49.582Z,92.18
2022-12-06T06:35:06.495Z,92.69
2022-12-06T06:37:23.628Z,93.58
2022-12-06T06:39:40.668Z,93.32
2022-12-06T06:41:57.707Z,93.25
2022-12-06T06:44:14.616Z,92.69
2022-12-06T06:46:31.980Z,92.46
2022-12-06T06:48:49.009Z,93.92
2022-12-06T06:51:06.272Z,93.79
2022-12-06T06:53:23.272Z,93.53
2022-12-06T06:55:41.211Z,93.21
2022-12-06T06:57:58.459Z,92.71
2022-12-06T07:00:15.677Z,93.14
2022-12-06T07:02:33.590Z,93.61
2022-12-06T07:04:50.651Z,93.81
2022-12-06T07:07:07.697Z,93.27
2022-12-06T07:09:24.941Z,92.38
2022-12-06T07:11:41.833Z,93.67
2022-12-06T07:13:58.913Z,94.09
2022-12-06T07:16:15.981Z,94.48
2022-12-06T07:18:32.889Z,94.36
2022-12-06T07:20:49.815Z,93.89
2022-12-06T07:23:07.109Z,94.33
2022-12-06T07:25:24.151Z,94.32
2022-12-06T07:27:41.195Z,94.74
2022-12-06T07:29:58.425Z,93.32
2022-12-06T07:32:15.569Z,94.28
2022-12-06T07:34:32.537Z,94.33
2022-12-06T07:36:50.129Z,94.21
2022-12-06T07:39:13.053Z,93.59
2022-12-06T07:41:31.556Z,93.95
2022-12-06T07:43:48.586Z,93.58
2022-12-06T07:46:05.625Z,94.19
2022-12-06T07:48:22.916Z,94.39
2022-12-06T07:50:39.852Z,94.84
2022-12-06T07:52:56.928Z,94.03
2022-12-06T07:55:13.972Z,93.50
2022-12-06T07:57:30.900Z,93.78
2022-12-06T07:59:48.194Z,93.43
2022-12-06T08:02:05.253Z,94.47
2022-12-06T08:04:22.313Z,94.39
2022-12-06T08:06:39.351Z,94.07
2022-12-06T08:08:56.322Z,93.75
2022-12-06T08:11:13.550Z,94.00
2022-12-06T08:13:30.808Z,93.50
2022-12-06T08:15:47.792Z,93.93
2022-12-06T08:18:05.130Z,94.94
2022-12-06T08:20:22.425Z,94.83
2022-12-06T08:22:39.683Z,93.50
2022-12-06T08:24:56.891Z,93.35
2022-12-06T08:27:14.167Z,94.23
2022-12-06T08:29:31.191Z,93.38
2022-12-06T08:31:48.249Z,92.79
2022-12-06T08:34:05.574Z,92.56
2022-12-06T08:36:22.466Z,93.24
2022-12-06T08:38:40.743Z,93.07
2022-12-06T08:40:58.069Z,92.53
2022-12-06T08:43:14.973Z,93.29
2022-12-06T08:45:32.028Z,92.67
2022-12-06T08:47:48.848Z,92.90
2022-12-06T08:50:05.878Z,92.95
2022-12-06T08:52:22.776Z,92.98
2022-12-06T08:54:39.660Z,91.38
2022-12-06T08:56:57.485Z,91.86
2022-12-06T08:59:14.762Z,91.94
2022-12-06T09:01:37.482Z,92.30
2022-12-06T09:03:55.200Z,91.63
2022-12-06T09:06:12.145Z,91.75
2022-12-06T09:08:29.086Z,91.66
2022-12-06T09:10:46.381Z,91.33
2022-12-06T09:13:03.405Z,91.01
2022-12-06T09:15:20.378Z,91.01
2022-12-06T09:17:37.663Z,90.58
2022-12-06T09:19:54.853Z,91.11
2022-12-06T09:22:11.929Z,91.20
2022-12-06T09:24:28.950Z,91.32
2022-12-06T09:26:46.160Z,91.46
2022-12-06T09:29:03.199Z,90.92
2022-12-06T09:31:20.337Z,91.40
2022-12-06T09:33:37.594Z,90.71
2022-12-06T09:35:54.522Z,90.08
2022-12-06T09:38:11.537Z,89.14
2022-12-06T09:40:28.490Z,88.61
2022-12-06T09:42:45.554Z,89.24
2022-12-06T09:45:02.547Z,88.88
2022-12-06T09:47:19.817Z,89.07
2022-12-06T09:49:37.156Z,88.60
2022-12-06T09:51:54.065Z,87.66
2022-12-06T09:54:11.055Z,87.10
2022-12-06T09:56:28.123Z,87.79
2022-12-06T09:58:45.427Z,87.52
2022-12-06T10:01:02.650Z,85.91
2022-12-06T10:03:19.972Z,87.45
2022-12-06T10:05:36.881Z,87.12
2022-12-06T10:07:53.921Z,87.60
2022-12-06T10:10:11.343Z,86.79
2022-12-06T10:12:28.237Z,86.98
2022-12-06T10:14:45.225Z,87.45
2022-12-06T10:17:02.494Z,87.44
2022-12-06T10:19:19.493Z,87.29
2022-12-06T10:21:36.771Z,87.37
2022-12-06T10:23:57.344Z,86.88
2022-12-06T10:26:18.921Z,87.52
2022-12-06T10:28:36.166Z,87.69
2022-12-06T10:30:54.215Z,88.49
2022-12-06T10:33:11.238Z,87.52
2022-12-06T10:35:28.456Z,87.90
2022-12-06T10:37:46.703Z,88.08
2022-12-06T10:40:04.084Z,87.97
2022-12-06T10:42:21.272Z,88.40
2022-12-06T10:44:38.220Z,87.73
2022-12-06T10:46:56.172Z,88.49
2022-12-06T10:49:13.476Z,87.72
2022-12-06T10:51:30.416Z,88.34
2022-12-06T10:53:48.386Z,88.22
2022-12-06T10:56:05.320Z,87.74
2022-12-06T10:58:22.352Z,86.98
2022-12-06T11:00:39.352Z,87.32
2022-12-06T11:02:56.495Z,87.87
2022-12-06T11:05:13.620Z,87.45
2022-12-06T11:07:30.673Z,88.24
2022-12-06T11:09:47.647Z,88.77
2022-12-06T11:12:05.999Z,87.96
2022-12-06T11:14:23.328Z,87.80
2022-12-06T11:16:40.614Z,88.57
2022-12-06T11:18:58.663Z,88.93
2022-12-06T11:21:15.715Z,89.37
2022-12-06T11:23:32.638Z,88.70
2022-12-06T11:25:49.699Z,88.88
2022-12-06T11:28:08.014Z,88.42
2022-12-06T11:30:26.110Z,89.07
2022-12-06T11:32:43.041Z,89.22
2022-12-06T11:35:00.314Z,87.90
2022-12-06T11:37:17.375Z,88.47
2022-12-06T11:39:34.326Z,88.19
2022-12-06T11:41:51.312Z,88.35
2022-12-06T11:44:08.307Z,88.66
2022-12-06T11:46:25.346Z,88.34
2022-12-06T11:48:42.638Z,87.47
2022-12-06T11:50:59.591Z,87.72
2022-12-06T11:53:16.612Z,87.56
2022-12-06T11:55:33.704Z,87.36
2022-12-06T11:57:51.495Z,87.22
2022-12-06T12:00:08.463Z,88.01
2022-12-06T12:02:25.399Z,87.55
2022-12-06T12:04:42.350Z,86.27
2022-12-06T12:06:59.549Z,86.49
2022-12-06T12:09:16.624Z,86.86
2022-12-06T12:11:33.924Z,86.88
2022-12-06T12:13:50.882Z,87.13
2022-12-06T12:16:07.866Z,87.08
2022-12-06T12:18:25.228Z,87.60
2022-12-06T12:20:43.096Z,87.46
2022-12-06T12:23:00.121Z,87.89
2022-12-06T12:25:19.741Z,87.30
2022-12-06T12:27:37.079Z,87.11
2022-12-06T12:29:54.072Z,87.63
2022-12-06T12:32:11.113Z,87.95
2022-12-06T12:34:28.438Z,87.59
2022-12-06T12:36:45.429Z,87.48
2022-12-06T12:39:02.429Z,87.58
2022-12-06T12:41:19.251Z,87.79
2022-12-06T12:43:36.593Z,87.90
2022-12-06T12:45:57.017Z,88.85
2022-12-06T12:48:16.555Z,87.31
2022-12-06T12:50:33.830Z,88.23
2022-12-06T12:52:50.924Z,87.97
2022-12-06T12:55:08.163Z,88.02
2022-12-06T12:57:25.414Z,86.95
2022-12-06T12:59:42.413Z,87.29
2022-12-06T13:01:59.478Z,87.50
2022-12-06T13:04:16.479Z,87.40
2022-12-06T13:06:33.724Z,86.83
2022-12-06T13:08:50.669Z,87.24
2022-12-06T13:11:07.960Z,87.04
2022-12-06T13:13:25.211Z,86.95
2022-12-06T13:15:43.176Z,86.51
2022-12-06T13:18:00.663Z,86.11
2022-12-06T13:20:19.012Z,86.58
2022-12-06T13:22:36.277Z,86.12
2022-12-06T13:24:53.261Z,86.12
2022-12-06T13:27:10.234Z,85.92
2022-12-06T13:29:27.195Z,85.71
2022-12-06T13:31:44.141Z,86.03
2022-12-06T13:34:01.099Z,86.53
2022-12-06T13:36:18.103Z,85.81
2022-12-06T13:38:35.176Z,85.82
2022-12-06T13:40:52.073Z,85.75
2022-12-06T13:43:08.945Z,85.44
2022-12-06T13:45:25.992Z,85.17
2022-12-06T13:47:44.384Z,85.19
2022-12-06T13:50:01.489Z,85.24
2022-12-06T13:52:18.868Z,85.77
2022-12-06T13:54:35.933Z,85.59
2022-12-06T13:56:53.435Z,85.26
2022-12-06T13:59:10.461Z,85.41
2022-12-06T14:01:27.459Z,85.07
2022-12-06T14:03:45.390Z,84.96
2022-12-06T14:06:03.399Z,84.47
2022-12-06T14:08:23.641Z,84.97
2022-12-06T14:10:40.666Z,85.06
2022-12-06T14:12:57.578Z,84.51
2022-12-06T14:15:14.546Z,84.79
2022-12-06T14:17:59.897Z,85.55
2022-12-06T14:20:08.525Z,85.95
2022-12-06T14:22:25.420Z,85.18
2022-12-06T14:24:42.499Z,85.80
2022-12-06T14:26:59.458Z,84.86
2022-12-06T14:29:16.476Z,85.32
2022-12-06T14:31:34.530Z,85.57
2022-12-06T14:33:51.881Z,85.49
2022-12-06T14:36:12.889Z,86.09
2022-12-06T14:38:34.174Z,86.22
2022-12-06T14:40:51.620Z,86.79
2022-12-06T14:43:10.031Z,85.95
2022-12-06T14:45:26.904Z,86.72
2022-12-06T14:47:43.887Z,86.45
2022-12-06T14:50:00.988Z,86.74
2022-12-06T14:52:18.514Z,87.30
2022-12-06T14:54:35.495Z,86.82
2022-12-06T14:56:52.708Z,87.34
2022-12-06T14:59:09.981Z,87.66
2022-12-06T15:01:27.298Z,87.04
2022-12-06T15:03:44.771Z,87.22
2022-12-06T15:06:01.881Z,86.86
2022-12-06T15:08:18.946Z,87.68
2022-12-06T15:10:37.252Z,87.86
2022-12-06T15:12:54.438Z,87.90
2022-12-06T15:15:11.708Z,87.98
2022-12-06T15:17:28.604Z,88.20
2022-12-06T15:19:45.672Z,88.03
2022-12-06T15:22:02.699Z,88.64
2022-12-06T15:24:19.666Z,88.18
2022-12-06T15:26:36.690Z,89.49
2022-12-06T15:28:53.995Z,88.82
2022-12-06T15:31:11.208Z,89.40
2022-12-06T15:33:28.190Z,89.63
2022-12-06T15:35:46.088Z,89.75
2022-12-06T15:38:04.325Z,89.64
2022-12-06T15:40:21.518Z,89.54
2022-12-06T15:42:38.395Z,89.78
2022-12-06T15:44:55.487Z,89.67
2022-12-06T15:47:12.434Z,89.86
2022-12-06T15:49:29.503Z,90.32
2022-12-06T15:51:46.537Z,89.91
2022-12-06T15:54:03.818Z,89.92
2022-12-06T15:56:21.155Z,90.54
2022-12-06T15:58:38.491Z,90.14
2022-12-06T16:00:55.390Z,90.78
2022-12-06T16:03:12.674Z,90.32
2022-12-06T16:05:29.667Z,90.33
2022-12-06T16:07:47.701Z,91.04
2022-12-06T16:10:04.757Z,91.57
2022-12-06T16:12:21.715Z,90.57
2022-12-06T16:14:39.024Z,91.43
2022-12-06T16:16:55.975Z,91.27
2022-12-06T16:19:12.988Z,90.57
2022-12-06T16:21:30.239Z,90.75
2022-12-06T16:24:17.181Z,91.68
2022-12-06T16:26:24.518Z,91.32
2022-12-06T16:28:42.439Z,91.14
2022-12-06T16:30:59.359Z,90.96
2022-12-06T16:33:16.408Z,91.99
2022-12-06T16:35:33.446Z,91.22
2022-12-06T16:37:50.322Z,91.83
2022-12-06T16:40:07.434Z,92.32
2022-12-06T16:42:24.482Z,92.06
2022-12-06T16:44:41.708Z,92.05
2022-12-06T16:46:58.676Z,91.91
2022-12-06T16:49:44.795Z,91.81
2022-12-06T16:51:52.680Z,91.64
2022-12-06T16:54:09.955Z,91.74
2022-12-06T16:56:26.938Z,92.38
2022-12-06T16:58:43.857Z,91.95
2022-12-06T17:01:00.811Z,92.12
2022-12-06T17:03:17.754Z,91.89
2022-12-06T17:05:34.883Z,92.21
2022-12-06T17:07:51.996Z,92.28
2022-12-06T17:10:08.949Z,92.94
2022-12-06T17:12:25.966Z,92.00
2022-12-06T17:14:43.007Z,92.13
2022-12-06T17:17:02.669Z,93.04
2022-12-06T17:19:19.981Z,92.03
2022-12-06T17:21:36.828Z,92.18
2022-12-06T17:23:53.873Z,92.12
2022-12-06T17:26:11.154Z,93.50
2022-12-06T17:28:28.502Z,92.20
2022-12-06T17:30:50.810Z,92.18
2022-12-06T17:33:08.301Z,92.77
2022-12-06T17:35:25.264Z,93.44
2022-12-06T17:37:42.223Z,91.93
2022-12-06T17:40:00.527Z,92.10
2022-12-06T17:42:18.738Z,92.81
2022-12-06T17:44:35.753Z,92.19
2022-12-06T17:46:52.785Z,93.29
2022-12-06T17:49:09.769Z,92.28
2022-12-06T17:51:27.090Z,92.88
2022-12-06T17:53:44.027Z,93.11
2022-12-06T17:56:01.098Z,93.57
2022-12-06T17:58:18.064Z,92.20
2022-12-06T18:00:35.000Z,92.48
2022-12-06T18:02:52.069Z,92.36
2022-12-06T18:05:09.268Z,92.08
2022-12-06T18:07:26.516Z,92.08
2022-12-06T18:09:43.471Z,92.24
2022-12-06T18:12:00.401Z,92.74
2022-12-06T18:14:17.352Z,93.18
2022-12-06T18:16:34.303Z,92.01
2022-12-06T18:18:51.538Z,91.92
2022-12-06T18:21:08.791Z,91.83
2022-12-06T18:23:25.861Z,92.95
2022-12-06T18:25:44.142Z,92.97
2022-12-06T18:28:01.141Z,92.52
2022-12-06T18:30:18.128Z,92.28
2022-12-06T18:32:35.147Z,92.76
2022-12-06T18:34:52.054Z,93.62
2022-12-06T18:37:09.123Z,92.55
2022-12-06T18:39:26.154Z,93.55
2022-12-06T18:41:43.451Z,93.13
2022-12-06T18:44:00.500Z,93.15
2022-12-06T18:46:17.642Z,92.53
2022-12-06T18:48:34.891Z,92.33
2022-12-06T18:50:52.196Z,93.36
2022-12-06T18:53:09.234Z,93.48
2022-12-06T18:55:26.119Z,92.71
2022-12-06T18:57:43.014Z,93.26
2022-12-06T19:00:00.742Z,93.14
2022-12-06T19:02:18.344Z,92.54
2022-12-06T19:04:35.349Z,92.37
2022-12-06T19:06:52.385Z,92.52
2022-12-06T19:09:09.554Z,92.51
2022-12-06T19:11:26.473Z,92.73
2022-12-06T19:13:43.571Z,92.82
2022-12-06T19:16:00.693Z,92.39
2022-12-06T19:18:17.817Z,93.67
2022-12-06T19:20:35.069Z,92.60
2022-12-06T19:22:52.081Z,92.88
2022-12-06T19:25:09.078Z,93.88
2022-12-06T19:27:26.056Z,93.49
2022-12-06T19:29:43.021Z,94.02
2022-12-06T19:32:00.054Z,93.94
2022-12-06T19:34:17.014Z,94.34
2022-12-06T19:36:35.337Z,94.49
2022-12-06T19:38:52.255Z,94.28
2022-12-06T19:41:09.359Z,93.40
2022-12-06T19:43:26.639Z,93.97
2022-12-06T19:45:43.759Z,93.39
2022-12-06T19:48:01.076Z,93.73
2022-12-06T19:50:18.093Z,92.84
2022-12-06T19:52:35.403Z,92.33
2022-12-06T19:54:52.308Z,93.84
2022-12-06T19:57:09.386Z,92.99
2022-12-06T19:59:26.307Z,92.98
2022-12-06T20:01:43.425Z,93.33
2022-12-06T20:04:00.853Z,92.74
2022-12-06T20:06:18.428Z,93.25
2022-12-06T20:08:36.461Z,92.45
2022-12-06T20:10:53.459Z,92.96
2022-12-06T20:13:11.442Z,93.38
2022-12-06T20:15:28.367Z,92.08
2022-12-06T20:17:45.415Z,93.20
2022-12-06T20:20:02.682Z,93.03
2022-12-06T20:22:20.151Z,92.92
2022-12-06T20:24:37.187Z,93.69
2022-12-06T20:26:54.227Z,93.55
2022-12-06T20:29:11.235Z,93.02
2022-12-06T20:31:28.279Z,92.62
2022-12-06T20:33:45.235Z,93.75
2022-12-06T20:36:02.173Z,93.55
2022-12-06T20:38:19.159Z,92.54
2022-12-06T20:40:36.060Z,94.11
2022-12-06T20:42:53.286Z,93.54
2022-12-06T20:45:10.209Z,94.27
2022-12-06T20:47:27.242Z,93.79
2022-12-06T20:49:44.491Z,94.08
2022-12-06T20:52:02.529Z,93.84
2022-12-06T20:54:19.466Z,94.19
2022-12-06T20:56:36.391Z,92.92
2022-12-06T20:58:53.369Z,93.83
2022-12-06T21:01:10.419Z,94.04
2022-12-06T21:03:28.504Z,94.21
2022-12-06T21:05:46.504Z,93.58
2022-12-06T21:08:05.014Z,94.24
2022-12-06T21:10:22.004Z,94.03
2022-12-06T21:12:40.264Z,93.75
2022-12-06T21:14:57.492Z,92.84
2022-12-06T21:17:14.595Z,93.88
2022-12-06T21:19:32.913Z,93.46
2022-12-06T21:21:50.188Z,93.97
2022-12-06T21:24:07.200Z,93.64
2022-12-06T21:26:24.120Z,93.47
2022-12-06T21:28:41.460Z,94.01
2022-12-06T21:30:58.751Z,94.49
2022-12-06T21:33:16.045Z,93.54
2022-12-06T21:35:33.404Z,93.13
2022-12-06T21:37:50.452Z,93.44
2022-12-06T21:40:07.509Z,93.40
2022-12-06T21:42:24.550Z,93.22
2022-12-06T21:44:41.701Z,94.17
2022-12-06T21:46:59.014Z,94.47
2022-12-06T21:49:16.025Z,93.10
2022-12-06T21:51:33.005Z,94.12
2022-12-06T21:53:50.408Z,93.13
2022-12-06T21:56:07.363Z,94.25
2022-12-06T21:58:24.346Z,94.80
2022-12-06T22:00:41.261Z,94.23
2022-12-06T22:02:58.333Z,93.62
2022-12-06T22:05:15.410Z,94.46
2022-12-06T22:07:32.324Z,94.00
2022-12-06T22:09:49.613Z,94.20
2022-12-06T22:12:06.621Z,93.44
2022-12-06T22:14:23.896Z,94.18
2022-12-06T22:16:41.208Z,93.79
2022-12-06T22:18:58.107Z,93.87
2022-12-06T22:21:15.040Z,94.41
2022-12-06T22:23:32.074Z,93.64
2022-12-06T22:25:49.153Z,94.53
2022-12-06T22:28:06.255Z,93.59
2022-12-06T22:30:23.578Z,94.18
2022-12-06T22:32:41.656Z,93.82
2022-12-06T22:34:58.915Z,94.47
2022-12-06T22:37:16.285Z,94.17
2022-12-06T22:39:33.588Z,94.01
2022-12-06T22:41:50.916Z,93.49
2022-12-06T22:44:07.928Z,93.63
2022-12-06T22:46:24.985Z,94.10
2022-12-06T22:48:42.166Z,93.99
2022-12-06T22:50:59.248Z,94.08
2022-12-06T22:53:16.599Z,93.81
2022-12-06T22:55:33.816Z,92.91
2022-12-06T22:57:51.094Z,94.41
2022-12-06T23:00:08.192Z,94.34
2022-12-06T23:02:25.341Z,93.12
2022-12-06T23:04:42.612Z,94.49
2022-12-06T23:06:59.542Z,93.99
2022-12-06T23:09:16.732Z,93.45
2022-12-06T23:11:33.920Z,93.86
2022-12-06T23:13:51.859Z,93.94
2022-12-06T23:16:09.328Z,93.25
2022-12-06T23:18:26.358Z,94.45
2022-12-06T23:20:43.420Z,93.99
2022-12-06T23:23:00.661Z,94.54
2022-12-06T23:25:18.000Z,93.27
2022-12-06T23:27:35.002Z,93.50
2022-12-06T23:29:51.989Z,94.67
2022-12-06T23:32:09.304Z,94.74
2022-12-06T23:34:26.423Z,93.62
2022-12-06T23:36:43.359Z,94.16
2022-12-06T23:39:00.557Z,93.41
2022-12-06T23:41:17.863Z,93.03
2022-12-06T23:43:34.846Z,92.87
2022-12-06T23:45:57.517Z,93.99
2022-12-06T23:48:15.827Z,94.06
2022-12-06T23:50:33.133Z,93.12
2022-12-06T23:52:50.197Z,93.52
2022-12-06T23:55:07.364Z,93.42
2022-12-06T23:57:25.284Z,94.21
2022-12-06T23:59:42.402Z,93.26
